sensor_id;sensor_type;location;lat;lon;timestamp;temperature;humidity
354;DHT22;165;53.592;10.044;2022-08-01T00:01:48;19.30;99.90
354;DHT22;165;53.592;10.044;2022-08-01T00:04:13;19.20;99.90
354;DHT22;165;53.592;10.044;2022-08-01T00:06:39;19.20;99.90
354;DHT22;165;53.592;10.044;2022-08-01T00:09:04;19.20;99.90
354;DHT22;165;53.592;10.044;2022-08-01T00:11:30;19.20;99.90
354;DHT22;165;53.592;10.044;2022-08-01T00:13:56;19.30;99.90
354;DHT22;165;53.592;10.044;2022-08-01T00:16:21;19.30;99.90
354;DHT22;165;53.592;10.044;2022-08-01T00:18:49;19.30;99.90
354;DHT22;165;53.592;10.044;2022-08-01T00:21:15;19.30;99.90
354;DHT22;165;53.592;10.044;2022-08-01T00:23:40;19.30;99.90
354;DHT22;165;53.592;10.044;2022-08-01T00:26:06;19.30;99.90
354;DHT22;165;53.592;10.044;2022-08-01T00:28:31;19.30;99.90
354;DHT22;165;53.592;10.044;2022-08-01T00:30:57;19.30;99.90
354;DHT22;165;53.592;10.044;2022-08-01T00:33:22;19.30;99.90
354;DHT22;165;53.592;10.044;2022-08-01T00:35:48;19.30;99.90
354;DHT22;165;53.592;10.044;2022-08-01T00:38:13;19.30;99.90
354;DHT22;165;53.592;10.044;2022-08-01T00:40:39;19.30;99.90
354;DHT22;165;53.592;10.044;2022-08-01T00:43:04;19.30;99.90
354;DHT22;165;53.592;10.044;2022-08-01T00:45:30;19.30;99.90
354;DHT22;165;53.592;10.044;2022-08-01T00:47:55;19.30;99.90
354;DHT22;165;53.592;10.044;2022-08-01T00:50:21;19.30;99.90
354;DHT22;165;53.592;10.044;2022-08-01T00:52:47;19.30;99.90
354;DHT22;165;53.592;10.044;2022-08-01T00:55:13;19.30;99.90
354;DHT22;165;53.592;10.044;2022-08-01T00:57:39;19.30;99.90
354;DHT22;165;53.592;10.044;2022-08-01T01:00:06;19.30;99.90
354;DHT22;165;53.592;10.044;2022-08-01T01:02:32;19.30;99.90
354;DHT22;165;53.592;10.044;2022-08-01T01:04:58;19.30;99.90
354;DHT22;165;53.592;10.044;2022-08-01T01:10:09;19.20;99.90
354;DHT22;165;53.592;10.044;2022-08-01T01:12:44;19.20;99.90
354;DHT22;165;53.592;10.044;2022-08-01T01:15:28;19.20;99.90
354;DHT22;165;53.592;10.044;2022-08-01T01:18:20;19.20;99.90
354;DHT22;165;53.592;10.044;2022-08-01T01:33:29;19.20;99.90
354;DHT22;165;53.592;10.044;2022-08-01T01:35:59;19.10;99.90
354;DHT22;165;53.592;10.044;2022-08-01T01:38:33;19.10;99.90
354;DHT22;165;53.592;10.044;2022-08-01T01:41:00;19.10;99.90
354;DHT22;165;53.592;10.044;2022-08-01T01:43:28;19.00;99.90
354;DHT22;165;53.592;10.044;2022-08-01T01:45:54;19.00;99.90
354;DHT22;165;53.592;10.044;2022-08-01T01:48:22;19.00;99.90
354;DHT22;165;53.592;10.044;2022-08-01T01:50:49;18.90;99.90
354;DHT22;165;53.592;10.044;2022-08-01T01:53:19;18.90;99.90
354;DHT22;165;53.592;10.044;2022-08-01T01:55:47;18.90;99.90
354;DHT22;165;53.592;10.044;2022-08-01T01:58:14;18.90;99.90
354;DHT22;165;53.592;10.044;2022-08-01T02:00:44;18.90;99.90
354;DHT22;165;53.592;10.044;2022-08-01T02:03:12;18.90;99.90
354;DHT22;165;53.592;10.044;2022-08-01T02:05:38;18.90;99.90
354;DHT22;165;53.592;10.044;2022-08-01T02:08:06;18.90;99.90
354;DHT22;165;53.592;10.044;2022-08-01T02:10:34;18.90;99.90
354;DHT22;165;53.592;10.044;2022-08-01T02:13:03;18.80;99.90
354;DHT22;165;53.592;10.044;2022-08-01T02:15:31;18.80;99.90
354;DHT22;165;53.592;10.044;2022-08-01T02:17:59;18.80;99.90
354;DHT22;165;53.592;10.044;2022-08-01T02:20:29;18.80;99.90
354;DHT22;165;53.592;10.044;2022-08-01T02:23:11;18.70;99.90
354;DHT22;165;53.592;10.044;2022-08-01T02:25:47;18.80;99.90
354;DHT22;165;53.592;10.044;2022-08-01T02:28:20;18.70;99.90
354;DHT22;165;53.592;10.044;2022-08-01T02:30:50;18.70;99.90
354;DHT22;165;53.592;10.044;2022-08-01T02:33:19;18.80;99.90
354;DHT22;165;53.592;10.044;2022-08-01T02:35:50;18.70;99.90
354;DHT22;165;53.592;10.044;2022-08-01T02:38:18;18.70;99.90
354;DHT22;165;53.592;10.044;2022-08-01T02:40:47;18.70;99.90
354;DHT22;165;53.592;10.044;2022-08-01T02:43:17;18.60;99.90
354;DHT22;165;53.592;10.044;2022-08-01T02:45:45;18.60;99.90
354;DHT22;165;53.592;10.044;2022-08-01T02:48:14;18.60;99.90
354;DHT22;165;53.592;10.044;2022-08-01T02:50:44;18.60;99.90
354;DHT22;165;53.592;10.044;2022-08-01T02:53:11;18.60;99.90
354;DHT22;165;53.592;10.044;2022-08-01T02:55:39;18.70;99.90
354;DHT22;165;53.592;10.044;2022-08-01T02:58:06;18.60;99.90
354;DHT22;165;53.592;10.044;2022-08-01T03:00:33;18.70;99.90
354;DHT22;165;53.592;10.044;2022-08-01T03:02:59;18.70;99.90
354;DHT22;165;53.592;10.044;2022-08-01T03:05:27;18.70;99.90
354;DHT22;165;53.592;10.044;2022-08-01T03:07:54;18.70;99.90
354;DHT22;165;53.592;10.044;2022-08-01T03:10:21;18.70;99.90
354;DHT22;165;53.592;10.044;2022-08-01T03:12:48;18.70;99.90
354;DHT22;165;53.592;10.044;2022-08-01T03:15:15;18.70;99.90
354;DHT22;165;53.592;10.044;2022-08-01T03:17:44;18.80;99.90
354;DHT22;165;53.592;10.044;2022-08-01T03:20:12;18.70;99.90
354;DHT22;165;53.592;10.044;2022-08-01T03:22:40;18.70;99.90
354;DHT22;165;53.592;10.044;2022-08-01T03:25:08;18.70;99.90
354;DHT22;165;53.592;10.044;2022-08-01T03:27:36;18.70;99.90
354;DHT22;165;53.592;10.044;2022-08-01T03:30:03;18.70;99.90
354;DHT22;165;53.592;10.044;2022-08-01T03:32:30;18.70;99.90
354;DHT22;165;53.592;10.044;2022-08-01T03:34:56;18.60;99.90
354;DHT22;165;53.592;10.044;2022-08-01T03:37:27;18.60;99.90
354;DHT22;165;53.592;10.044;2022-08-01T03:39:58;18.70;99.90
354;DHT22;165;53.592;10.044;2022-08-01T03:42:33;18.70;99.90
354;DHT22;165;53.592;10.044;2022-08-01T03:45:06;18.60;99.90
354;DHT22;165;53.592;10.044;2022-08-01T03:47:34;18.70;99.90
354;DHT22;165;53.592;10.044;2022-08-01T03:50:03;18.70;99.90
354;DHT22;165;53.592;10.044;2022-08-01T03:52:30;18.70;99.90
354;DHT22;165;53.592;10.044;2022-08-01T03:54:59;18.70;99.90
354;DHT22;165;53.592;10.044;2022-08-01T03:57:28;18.70;99.90
354;DHT22;165;53.592;10.044;2022-08-01T03:59:56;18.70;99.90
354;DHT22;165;53.592;10.044;2022-08-01T04:02:23;18.60;99.90
354;DHT22;165;53.592;10.044;2022-08-01T04:04:48;18.60;99.90
354;DHT22;165;53.592;10.044;2022-08-01T04:07:28;18.60;99.90
354;DHT22;165;53.592;10.044;2022-08-01T04:09:54;18.70;99.90
354;DHT22;165;53.592;10.044;2022-08-01T04:12:20;18.70;99.90
354;DHT22;165;53.592;10.044;2022-08-01T04:14:47;18.80;99.90
354;DHT22;165;53.592;10.044;2022-08-01T04:17:12;18.80;99.90
354;DHT22;165;53.592;10.044;2022-08-01T04:19:38;18.80;99.90
354;DHT22;165;53.592;10.044;2022-08-01T04:22:04;18.90;99.90
354;DHT22;165;53.592;10.044;2022-08-01T04:24:32;18.90;99.90
354;DHT22;165;53.592;10.044;2022-08-01T04:27:01;18.90;99.90
354;DHT22;165;53.592;10.044;2022-08-01T04:29:28;18.90;99.90
354;DHT22;165;53.592;10.044;2022-08-01T04:31:55;18.90;99.90
354;DHT22;165;53.592;10.044;2022-08-01T04:34:24;18.90;99.90
354;DHT22;165;53.592;10.044;2022-08-01T04:36:52;19.00;99.90
354;DHT22;165;53.592;10.044;2022-08-01T04:39:20;19.00;99.90
354;DHT22;165;53.592;10.044;2022-08-01T04:41:47;19.00;99.90
354;DHT22;165;53.592;10.044;2022-08-01T04:44:13;19.00;99.90
354;DHT22;165;53.592;10.044;2022-08-01T04:46:40;19.00;99.90
354;DHT22;165;53.592;10.044;2022-08-01T04:49:10;19.00;99.90
354;DHT22;165;53.592;10.044;2022-08-01T04:51:48;19.10;99.90
354;DHT22;165;53.592;10.044;2022-08-01T04:54:14;19.10;99.90
354;DHT22;165;53.592;10.044;2022-08-01T04:56:40;19.10;99.90
354;DHT22;165;53.592;10.044;2022-08-01T04:59:06;19.20;99.90
354;DHT22;165;53.592;10.044;2022-08-01T05:01:50;19.20;99.90
354;DHT22;165;53.592;10.044;2022-08-01T05:04:16;19.20;99.90
354;DHT22;165;53.592;10.044;2022-08-01T05:06:41;19.10;99.90
354;DHT22;165;53.592;10.044;2022-08-01T05:09:07;19.00;99.90
354;DHT22;165;53.592;10.044;2022-08-01T05:11:32;18.90;99.90
354;DHT22;165;53.592;10.044;2022-08-01T05:13:58;18.90;99.90
354;DHT22;165;53.592;10.044;2022-08-01T05:16:23;18.90;99.90
354;DHT22;165;53.592;10.044;2022-08-01T05:18:49;18.80;99.90
354;DHT22;165;53.592;10.044;2022-08-01T05:21:14;18.60;99.90
354;DHT22;165;53.592;10.044;2022-08-01T05:23:40;18.60;99.90
354;DHT22;165;53.592;10.044;2022-08-01T05:26:05;18.60;99.90
354;DHT22;165;53.592;10.044;2022-08-01T05:28:31;18.60;99.90
354;DHT22;165;53.592;10.044;2022-08-01T05:30:56;18.70;99.90
354;DHT22;165;53.592;10.044;2022-08-01T05:33:22;18.80;99.90
354;DHT22;165;53.592;10.044;2022-08-01T05:35:47;18.90;99.90
354;DHT22;165;53.592;10.044;2022-08-01T05:38:13;19.10;99.90
354;DHT22;165;53.592;10.044;2022-08-01T05:40:38;19.20;99.90
354;DHT22;165;53.592;10.044;2022-08-01T05:43:04;19.20;99.90
354;DHT22;165;53.592;10.044;2022-08-01T05:45:29;19.30;99.90
354;DHT22;165;53.592;10.044;2022-08-01T05:47:55;19.30;99.90
354;DHT22;165;53.592;10.044;2022-08-01T05:50:20;19.30;99.90
354;DHT22;165;53.592;10.044;2022-08-01T05:52:46;19.40;99.90
354;DHT22;165;53.592;10.044;2022-08-01T05:55:11;19.60;99.90
354;DHT22;165;53.592;10.044;2022-08-01T05:57:37;19.70;99.90
354;DHT22;165;53.592;10.044;2022-08-01T06:00:03;19.80;99.90
354;DHT22;165;53.592;10.044;2022-08-01T06:02:29;19.90;99.90
354;DHT22;165;53.592;10.044;2022-08-01T06:04:54;20.10;99.90
354;DHT22;165;53.592;10.044;2022-08-01T06:07:20;20.10;99.90
354;DHT22;165;53.592;10.044;2022-08-01T06:09:45;20.10;99.90
354;DHT22;165;53.592;10.044;2022-08-01T06:12:11;20.10;99.90
354;DHT22;165;53.592;10.044;2022-08-01T06:14:36;20.20;99.90
354;DHT22;165;53.592;10.044;2022-08-01T06:17:02;20.40;99.90
354;DHT22;165;53.592;10.044;2022-08-01T06:19:27;20.50;99.90
354;DHT22;165;53.592;10.044;2022-08-01T06:21:53;20.90;99.90
354;DHT22;165;53.592;10.044;2022-08-01T06:24:18;21.40;99.90
354;DHT22;165;53.592;10.044;2022-08-01T06:26:44;21.80;99.90
354;DHT22;165;53.592;10.044;2022-08-01T06:29:09;21.60;99.90
354;DHT22;165;53.592;10.044;2022-08-01T06:31:35;21.30;99.90
354;DHT22;165;53.592;10.044;2022-08-01T06:34:00;20.80;99.90
354;DHT22;165;53.592;10.044;2022-08-01T06:36:26;20.50;99.90
354;DHT22;165;53.592;10.044;2022-08-01T06:38:51;20.20;99.90
354;DHT22;165;53.592;10.044;2022-08-01T06:41:17;20.00;99.90
354;DHT22;165;53.592;10.044;2022-08-01T06:43:42;19.90;99.90
354;DHT22;165;53.592;10.044;2022-08-01T06:46:08;19.90;99.90
354;DHT22;165;53.592;10.044;2022-08-01T06:48:34;20.00;99.90
354;DHT22;165;53.592;10.044;2022-08-01T06:51:00;20.10;99.90
354;DHT22;165;53.592;10.044;2022-08-01T06:53:37;20.20;99.90
354;DHT22;165;53.592;10.044;2022-08-01T06:56:04;20.40;99.90
354;DHT22;165;53.592;10.044;2022-08-01T06:58:30;20.50;99.90
354;DHT22;165;53.592;10.044;2022-08-01T07:00:55;20.50;99.90
354;DHT22;165;53.592;10.044;2022-08-01T07:03:21;20.70;99.90
354;DHT22;165;53.592;10.044;2022-08-01T07:05:46;20.70;99.90
354;DHT22;165;53.592;10.044;2022-08-01T07:08:12;20.90;99.90
354;DHT22;165;53.592;10.044;2022-08-01T07:10:37;20.90;99.90
354;DHT22;165;53.592;10.044;2022-08-01T07:13:03;20.90;99.90
354;DHT22;165;53.592;10.044;2022-08-01T07:15:30;20.90;99.90
354;DHT22;165;53.592;10.044;2022-08-01T07:17:55;21.00;99.90
354;DHT22;165;53.592;10.044;2022-08-01T07:20:23;21.00;99.90
354;DHT22;165;53.592;10.044;2022-08-01T07:22:49;21.00;99.90
354;DHT22;165;53.592;10.044;2022-08-01T07:25:15;20.70;99.90
354;DHT22;165;53.592;10.044;2022-08-01T07:27:40;20.50;99.90
354;DHT22;165;53.592;10.044;2022-08-01T07:30:06;20.20;99.90
354;DHT22;165;53.592;10.044;2022-08-01T07:32:32;20.40;99.90
354;DHT22;165;53.592;10.044;2022-08-01T07:34:58;20.40;99.90
354;DHT22;165;53.592;10.044;2022-08-01T07:37:24;20.50;99.90
354;DHT22;165;53.592;10.044;2022-08-01T07:39:50;20.60;99.90
354;DHT22;165;53.592;10.044;2022-08-01T07:42:16;20.70;99.90
354;DHT22;165;53.592;10.044;2022-08-01T07:44:42;20.60;99.90
354;DHT22;165;53.592;10.044;2022-08-01T07:47:07;20.50;99.90
354;DHT22;165;53.592;10.044;2022-08-01T07:49:33;20.40;99.90
354;DHT22;165;53.592;10.044;2022-08-01T07:51:59;20.30;99.90
354;DHT22;165;53.592;10.044;2022-08-01T07:54:24;20.30;99.90
354;DHT22;165;53.592;10.044;2022-08-01T07:56:53;20.40;99.90
354;DHT22;165;53.592;10.044;2022-08-01T07:59:18;20.50;99.90
354;DHT22;165;53.592;10.044;2022-08-01T08:01:51;20.60;99.90
354;DHT22;165;53.592;10.044;2022-08-01T08:04:17;20.70;99.90
354;DHT22;165;53.592;10.044;2022-08-01T08:06:43;20.90;99.90
354;DHT22;165;53.592;10.044;2022-08-01T08:09:10;21.00;99.90
354;DHT22;165;53.592;10.044;2022-08-01T08:11:35;21.20;99.90
354;DHT22;165;53.592;10.044;2022-08-01T08:14:01;21.40;99.90
354;DHT22;165;53.592;10.044;2022-08-01T08:16:26;21.30;99.90
354;DHT22;165;53.592;10.044;2022-08-01T08:18:52;21.40;99.90
354;DHT22;165;53.592;10.044;2022-08-01T08:21:17;21.40;99.90
354;DHT22;165;53.592;10.044;2022-08-01T08:23:43;21.30;99.90
354;DHT22;165;53.592;10.044;2022-08-01T08:26:27;21.20;99.90
354;DHT22;165;53.592;10.044;2022-08-01T08:28:52;21.20;99.90
354;DHT22;165;53.592;10.044;2022-08-01T08:31:18;21.20;99.90
354;DHT22;165;53.592;10.044;2022-08-01T08:33:43;21.90;99.90
354;DHT22;165;53.592;10.044;2022-08-01T08:36:09;22.40;99.90
354;DHT22;165;53.592;10.044;2022-08-01T08:38:36;23.00;99.90
354;DHT22;165;53.592;10.044;2022-08-01T08:41:01;22.90;99.90
354;DHT22;165;53.592;10.044;2022-08-01T08:43:27;22.80;99.90
354;DHT22;165;53.592;10.044;2022-08-01T08:45:53;22.70;99.90
354;DHT22;165;53.592;10.044;2022-08-01T08:48:19;22.90;99.90
354;DHT22;165;53.592;10.044;2022-08-01T08:50:45;23.40;99.90
354;DHT22;165;53.592;10.044;2022-08-01T08:53:13;23.60;99.90
354;DHT22;165;53.592;10.044;2022-08-01T08:55:42;23.30;99.90
354;DHT22;165;53.592;10.044;2022-08-01T08:58:12;23.30;99.90
354;DHT22;165;53.592;10.044;2022-08-01T09:00:39;24.90;99.90
354;DHT22;165;53.592;10.044;2022-08-01T09:03:05;27.20;99.90
354;DHT22;165;53.592;10.044;2022-08-01T09:05:31;29.20;99.90
354;DHT22;165;53.592;10.044;2022-08-01T09:08:00;30.30;99.90
354;DHT22;165;53.592;10.044;2022-08-01T09:10:26;31.30;94.70
354;DHT22;165;53.592;10.044;2022-08-01T09:13:12;31.70;92.20
354;DHT22;165;53.592;10.044;2022-08-01T09:15:43;32.10;86.20
354;DHT22;165;53.592;10.044;2022-08-01T09:21:08;31.40;86.20
354;DHT22;165;53.592;10.044;2022-08-01T09:23:40;29.50;87.00
354;DHT22;165;53.592;10.044;2022-08-01T09:26:09;28.70;89.10
354;DHT22;165;53.592;10.044;2022-08-01T09:28:36;29.60;86.30
354;DHT22;165;53.592;10.044;2022-08-01T09:31:12;30.90;82.50
354;DHT22;165;53.592;10.044;2022-08-01T09:37:10;32.50;75.20
354;DHT22;165;53.592;10.044;2022-08-01T09:39:37;32.80;70.80
354;DHT22;165;53.592;10.044;2022-08-01T09:42:25;33.40;69.20
354;DHT22;165;53.592;10.044;2022-08-01T09:44:52;34.10;64.40
354;DHT22;165;53.592;10.044;2022-08-01T09:47:19;34.00;62.10
354;DHT22;165;53.592;10.044;2022-08-01T09:49:53;34.00;60.30
354;DHT22;165;53.592;10.044;2022-08-01T09:52:21;34.40;58.20
354;DHT22;165;53.592;10.044;2022-08-01T09:54:54;34.40;59.70
354;DHT22;165;53.592;10.044;2022-08-01T09:57:20;35.20;57.80
354;DHT22;165;53.592;10.044;2022-08-01T09:59:48;35.30;55.90
354;DHT22;165;53.592;10.044;2022-08-01T10:02:27;35.20;53.80
354;DHT22;165;53.592;10.044;2022-08-01T10:04:53;35.30;53.50
354;DHT22;165;53.592;10.044;2022-08-01T10:07:20;35.10;53.50
354;DHT22;165;53.592;10.044;2022-08-01T10:09:47;35.00;54.50
354;DHT22;165;53.592;10.044;2022-08-01T10:12:15;35.30;53.70
354;DHT22;165;53.592;10.044;2022-08-01T10:14:42;35.80;52.40
354;DHT22;165;53.592;10.044;2022-08-01T10:17:12;35.80;52.20
354;DHT22;165;53.592;10.044;2022-08-01T10:19:39;35.70;52.40
354;DHT22;165;53.592;10.044;2022-08-01T10:22:08;35.00;53.00
354;DHT22;165;53.592;10.044;2022-08-01T10:24:38;35.60;51.90
354;DHT22;165;53.592;10.044;2022-08-01T10:27:07;35.60;50.80
354;DHT22;165;53.592;10.044;2022-08-01T10:29:47;35.60;52.30
354;DHT22;165;53.592;10.044;2022-08-01T10:32:13;35.50;50.40
354;DHT22;165;53.592;10.044;2022-08-01T10:34:40;33.70;53.80
354;DHT22;165;53.592;10.044;2022-08-01T10:37:07;33.90;53.60
354;DHT22;165;53.592;10.044;2022-08-01T10:39:33;34.20;53.40
354;DHT22;165;53.592;10.044;2022-08-01T10:41:59;35.30;52.00
354;DHT22;165;53.592;10.044;2022-08-01T10:44:27;34.40;51.00
354;DHT22;165;53.592;10.044;2022-08-01T10:47:31;32.90;54.00
354;DHT22;165;53.592;10.044;2022-08-01T10:50:07;32.60;54.80
354;DHT22;165;53.592;10.044;2022-08-01T10:52:36;33.80;51.80
354;DHT22;165;53.592;10.044;2022-08-01T10:55:07;34.10;49.80
354;DHT22;165;53.592;10.044;2022-08-01T10:57:46;33.70;51.30
354;DHT22;165;53.592;10.044;2022-08-01T11:00:20;33.50;52.30
354;DHT22;165;53.592;10.044;2022-08-01T11:03:02;33.50;51.60
354;DHT22;165;53.592;10.044;2022-08-01T11:05:32;33.60;52.30
354;DHT22;165;53.592;10.044;2022-08-01T11:08:01;34.10;51.00
354;DHT22;165;53.592;10.044;2022-08-01T11:10:34;33.80;51.60
354;DHT22;165;53.592;10.044;2022-08-01T11:13:01;33.60;51.80
354;DHT22;165;53.592;10.044;2022-08-01T11:15:30;34.20;49.90
354;DHT22;165;53.592;10.044;2022-08-01T11:18:00;34.00;51.00
354;DHT22;165;53.592;10.044;2022-08-01T11:20:30;33.00;50.20
354;DHT22;165;53.592;10.044;2022-08-01T11:37:23;28.30;60.00
354;DHT22;165;53.592;10.044;2022-08-01T11:40:21;27.70;62.20
354;DHT22;165;53.592;10.044;2022-08-01T11:42:48;27.30;63.00
354;DHT22;165;53.592;10.044;2022-08-01T11:45:14;26.80;64.00
354;DHT22;165;53.592;10.044;2022-08-01T11:47:48;26.50;65.30
354;DHT22;165;53.592;10.044;2022-08-01T11:50:35;26.50;66.00
354;DHT22;165;53.592;10.044;2022-08-01T11:53:03;26.10;65.80
354;DHT22;165;53.592;10.044;2022-08-01T11:55:29;25.90;67.10
354;DHT22;165;53.592;10.044;2022-08-01T11:58:06;25.80;66.20
354;DHT22;165;53.592;10.044;2022-08-01T12:00:33;25.80;67.80
354;DHT22;165;53.592;10.044;2022-08-01T12:03:04;25.80;66.60
354;DHT22;165;53.592;10.044;2022-08-01T12:05:31;25.60;66.50
354;DHT22;165;53.592;10.044;2022-08-01T12:07:59;25.60;68.10
354;DHT22;165;53.592;10.044;2022-08-01T12:10:27;25.50;67.20
354;DHT22;165;53.592;10.044;2022-08-01T12:12:59;25.40;66.90
354;DHT22;165;53.592;10.044;2022-08-01T12:15:28;25.40;68.40
354;DHT22;165;53.592;10.044;2022-08-01T12:17:59;25.10;66.80
354;DHT22;165;53.592;10.044;2022-08-01T12:20:26;25.10;68.50
354;DHT22;165;53.592;10.044;2022-08-01T12:22:54;25.00;68.60
354;DHT22;165;53.592;10.044;2022-08-01T12:25:20;25.00;68.00
354;DHT22;165;53.592;10.044;2022-08-01T12:27:46;25.00;67.70
354;DHT22;165;53.592;10.044;2022-08-01T12:30:15;24.80;68.00
354;DHT22;165;53.592;10.044;2022-08-01T12:32:42;24.70;67.10
354;DHT22;165;53.592;10.044;2022-08-01T12:35:17;24.60;68.50
354;DHT22;165;53.592;10.044;2022-08-01T12:37:48;24.40;68.00
354;DHT22;165;53.592;10.044;2022-08-01T12:40:16;24.30;70.60
354;DHT22;165;53.592;10.044;2022-08-01T12:42:44;24.40;71.70
354;DHT22;165;53.592;10.044;2022-08-01T12:45:13;24.30;71.80
354;DHT22;165;53.592;10.044;2022-08-01T12:47:39;24.30;70.80
354;DHT22;165;53.592;10.044;2022-08-01T12:50:08;24.50;70.90
354;DHT22;165;53.592;10.044;2022-08-01T12:52:36;24.50;69.70
354;DHT22;165;53.592;10.044;2022-08-01T12:55:14;24.20;71.00
354;DHT22;165;53.592;10.044;2022-08-01T12:57:45;24.10;72.50
354;DHT22;165;53.592;10.044;2022-08-01T13:00:18;23.80;73.60
354;DHT22;165;53.592;10.044;2022-08-01T13:02:46;23.80;73.90
354;DHT22;165;53.592;10.044;2022-08-01T13:05:13;23.90;74.40
354;DHT22;165;53.592;10.044;2022-08-01T13:07:48;24.00;73.90
354;DHT22;165;53.592;10.044;2022-08-01T13:10:28;23.90;74.40
354;DHT22;165;53.592;10.044;2022-08-01T13:12:56;24.00;74.10
354;DHT22;165;53.592;10.044;2022-08-01T13:15:31;24.00;73.60
354;DHT22;165;53.592;10.044;2022-08-01T13:17:59;24.10;74.20
354;DHT22;165;53.592;10.044;2022-08-01T13:20:30;24.00;74.40
354;DHT22;165;53.592;10.044;2022-08-01T13:23:10;23.90;72.60
354;DHT22;165;53.592;10.044;2022-08-01T13:25:50;23.90;71.40
354;DHT22;165;53.592;10.044;2022-08-01T13:28:17;24.10;72.40
354;DHT22;165;53.592;10.044;2022-08-01T13:31:01;24.10;72.50
354;DHT22;165;53.592;10.044;2022-08-01T13:33:42;24.10;72.10
354;DHT22;165;53.592;10.044;2022-08-01T13:36:08;24.10;72.20
354;DHT22;165;53.592;10.044;2022-08-01T13:38:33;24.20;72.00
354;DHT22;165;53.592;10.044;2022-08-01T13:41:17;24.20;71.70
354;DHT22;165;53.592;10.044;2022-08-01T13:43:43;24.10;73.00
354;DHT22;165;53.592;10.044;2022-08-01T13:46:09;24.10;74.50
354;DHT22;165;53.592;10.044;2022-08-01T13:48:34;24.10;73.10
354;DHT22;165;53.592;10.044;2022-08-01T13:51:00;24.10;72.10
354;DHT22;165;53.592;10.044;2022-08-01T13:53:26;23.90;71.40
354;DHT22;165;53.592;10.044;2022-08-01T13:55:52;23.70;69.30
354;DHT22;165;53.592;10.044;2022-08-01T13:58:18;23.60;69.70
354;DHT22;165;53.592;10.044;2022-08-01T14:00:43;23.60;70.30
354;DHT22;165;53.592;10.044;2022-08-01T14:03:09;23.50;70.60
354;DHT22;165;53.592;10.044;2022-08-01T14:05:36;23.50;71.30
354;DHT22;165;53.592;10.044;2022-08-01T14:08:02;23.50;70.20
354;DHT22;165;53.592;10.044;2022-08-01T14:10:27;23.50;72.20
354;DHT22;165;53.592;10.044;2022-08-01T14:12:55;23.30;67.50
354;DHT22;165;53.592;10.044;2022-08-01T14:15:20;23.20;69.10
354;DHT22;165;53.592;10.044;2022-08-01T14:17:46;23.30;69.10
354;DHT22;165;53.592;10.044;2022-08-01T14:20:11;23.20;69.70
354;DHT22;165;53.592;10.044;2022-08-01T14:22:41;23.20;70.50
354;DHT22;165;53.592;10.044;2022-08-01T14:25:07;23.20;70.60
354;DHT22;165;53.592;10.044;2022-08-01T14:27:33;23.20;70.60
354;DHT22;165;53.592;10.044;2022-08-01T14:30:03;23.20;71.90
354;DHT22;165;53.592;10.044;2022-08-01T14:32:29;23.20;70.60
354;DHT22;165;53.592;10.044;2022-08-01T14:34:55;22.90;69.90
354;DHT22;165;53.592;10.044;2022-08-01T14:37:21;22.80;70.60
354;DHT22;165;53.592;10.044;2022-08-01T14:39:49;22.70;70.20
354;DHT22;165;53.592;10.044;2022-08-01T14:42:15;22.90;71.10
354;DHT22;165;53.592;10.044;2022-08-01T14:44:40;23.10;71.20
354;DHT22;165;53.592;10.044;2022-08-01T14:47:06;23.00;71.10
354;DHT22;165;53.592;10.044;2022-08-01T14:49:31;22.90;71.20
354;DHT22;165;53.592;10.044;2022-08-01T14:51:57;22.90;72.70
354;DHT22;165;53.592;10.044;2022-08-01T14:54:23;22.90;73.10
354;DHT22;165;53.592;10.044;2022-08-01T14:56:48;22.90;73.60
354;DHT22;165;53.592;10.044;2022-08-01T14:59:14;22.80;74.60
354;DHT22;165;53.592;10.044;2022-08-01T15:01:40;22.80;74.80
354;DHT22;165;53.592;10.044;2022-08-01T15:04:05;22.80;75.50
354;DHT22;165;53.592;10.044;2022-08-01T15:06:31;22.80;76.90
354;DHT22;165;53.592;10.044;2022-08-01T15:08:57;22.70;77.00
354;DHT22;165;53.592;10.044;2022-08-01T15:11:22;22.80;78.20
354;DHT22;165;53.592;10.044;2022-08-01T15:13:48;22.70;78.00
354;DHT22;165;53.592;10.044;2022-08-01T15:16:33;22.60;77.80
354;DHT22;165;53.592;10.044;2022-08-01T15:18:59;22.70;78.80
354;DHT22;165;53.592;10.044;2022-08-01T15:21:24;22.80;78.20
354;DHT22;165;53.592;10.044;2022-08-01T15:23:50;22.80;78.10
354;DHT22;165;53.592;10.044;2022-08-01T15:26:15;22.80;77.40
354;DHT22;165;53.592;10.044;2022-08-01T15:28:41;22.80;77.70
354;DHT22;165;53.592;10.044;2022-08-01T15:31:07;22.70;77.90
354;DHT22;165;53.592;10.044;2022-08-01T15:33:32;22.70;78.70
354;DHT22;165;53.592;10.044;2022-08-01T15:35:58;22.60;79.00
354;DHT22;165;53.592;10.044;2022-08-01T15:38:24;22.40;81.00
354;DHT22;165;53.592;10.044;2022-08-01T15:40:49;22.50;81.10
354;DHT22;165;53.592;10.044;2022-08-01T15:43:15;22.50;79.60
354;DHT22;165;53.592;10.044;2022-08-01T15:45:40;22.30;80.80
354;DHT22;165;53.592;10.044;2022-08-01T15:48:06;22.40;80.40
354;DHT22;165;53.592;10.044;2022-08-01T15:50:35;22.40;80.60
354;DHT22;165;53.592;10.044;2022-08-01T15:53:03;22.60;80.40
354;DHT22;165;53.592;10.044;2022-08-01T15:55:29;22.60;80.50
354;DHT22;165;53.592;10.044;2022-08-01T15:57:54;22.70;80.00
354;DHT22;165;53.592;10.044;2022-08-01T16:00:20;22.70;81.30
354;DHT22;165;53.592;10.044;2022-08-01T16:02:46;22.60;80.70
354;DHT22;165;53.592;10.044;2022-08-01T16:05:13;22.30;81.00
354;DHT22;165;53.592;10.044;2022-08-01T16:07:38;22.20;82.60
354;DHT22;165;53.592;10.044;2022-08-01T16:10:04;22.00;82.90
354;DHT22;165;53.592;10.044;2022-08-01T16:12:30;21.90;83.90
354;DHT22;165;53.592;10.044;2022-08-01T16:14:56;21.90;84.70
354;DHT22;165;53.592;10.044;2022-08-01T16:17:22;21.80;85.70
354;DHT22;165;53.592;10.044;2022-08-01T16:19:47;21.80;87.10
354;DHT22;165;53.592;10.044;2022-08-01T16:22:15;21.80;87.90
354;DHT22;165;53.592;10.044;2022-08-01T16:24:40;21.80;89.10
354;DHT22;165;53.592;10.044;2022-08-01T16:27:06;21.80;89.70
354;DHT22;165;53.592;10.044;2022-08-01T16:29:32;21.80;88.80
354;DHT22;165;53.592;10.044;2022-08-01T16:31:58;21.70;90.30
354;DHT22;165;53.592;10.044;2022-08-01T16:34:23;21.70;91.80
354;DHT22;165;53.592;10.044;2022-08-01T16:36:49;21.50;92.40
354;DHT22;165;53.592;10.044;2022-08-01T16:39:17;21.40;93.00
354;DHT22;165;53.592;10.044;2022-08-01T16:41:42;21.30;93.20
354;DHT22;165;53.592;10.044;2022-08-01T16:44:08;21.20;94.80
354;DHT22;165;53.592;10.044;2022-08-01T16:46:33;21.20;95.50
354;DHT22;165;53.592;10.044;2022-08-01T16:48:59;21.20;95.80
354;DHT22;165;53.592;10.044;2022-08-01T16:51:24;21.30;96.30
354;DHT22;165;53.592;10.044;2022-08-01T16:53:50;21.20;95.70
354;DHT22;165;53.592;10.044;2022-08-01T16:56:15;21.20;96.40
354;DHT22;165;53.592;10.044;2022-08-01T16:58:41;21.20;97.70